Time;durP1;ratioP1;P1;durP2;ratioP2;P2;SDS_P1;SDS_P2;PMS_P1;PMS_P2;Temp;Humidity;BMP_temperature;BMP_pressure;BME280_temperature;BME280_humidity;BME280_pressure;Samples;Min_cycle;Max_cycle;Signal;HPM_P1;HPM_P2
2023/02/04 00:00:36;;;;;;;5.00;3.20;;;;;;;0.22;62.40;98945.98;107458;1254;69018;-37
2023/02/04 00:03:05;;;;;;;5.70;3.30;;;;;;;0.21;62.51;98947.20;107476;1254;74174;-37
2023/02/04 00:05:35;;;;;;;6.50;3.50;;;;;;;0.24;62.18;98946.52;107530;1254;60379;-37
2023/02/04 00:08:04;;;;;;;4.60;2.90;;;;;;;0.24;62.33;98946.48;107477;1254;60701;-37
2023/02/04 00:10:33;;;;;;;4.50;2.20;;;;;;;0.24;62.29;98947.54;107509;1254;75129;-37
2023/02/04 00:13:04;;;;;;;5.40;3.00;;;;;;;0.26;62.04;98947.30;107495;1258;69770;-38
2023/02/04 00:15:35;;;;;;;3.70;2.60;;;;;;;0.27;62.28;98946.30;107471;1255;71556;-38
2023/02/04 00:18:06;;;;;;;3.90;2.70;;;;;;;0.27;62.47;98944.34;107480;1254;60784;-38
2023/02/04 00:20:36;;;;;;;5.80;3.10;;;;;;;0.29;62.44;98948.65;107489;1254;61131;-38
2023/02/04 00:23:05;;;;;;;6.10;3.60;;;;;;;0.30;62.31;98952.10;107478;1254;74831;-38
2023/02/04 00:25:33;;;;;;;5.60;3.50;;;;;;;0.30;62.29;98952.47;107465;1259;68675;-38
2023/02/04 00:28:02;;;;;;;5.60;3.30;;;;;;;0.26;62.36;98947.77;107513;1258;73002;-38
2023/02/04 00:30:32;;;;;;;5.50;3.30;;;;;;;0.26;62.51;98945.48;107508;1254;60309;-38
2023/02/04 00:33:00;;;;;;;6.90;3.40;;;;;;;0.25;62.29;98945.97;107494;1257;61247;-37
2023/02/04 00:35:31;;;;;;;5.20;3.10;;;;;;;0.22;62.11;98946.27;106710;1254;1003584;-37
2023/02/04 00:38:00;;;;;;;5.00;3.00;;;;;;;0.17;62.07;98948.41;106770;1254;1003732;-37
2023/02/04 00:40:28;;;;;;;5.20;3.20;;;;;;;0.13;62.12;98950.27;107353;1259;73935;-37
2023/02/04 00:42:57;;;;;;;5.00;3.50;;;;;;;0.10;62.15;98952.77;106727;1254;1002879;-38
2023/02/04 00:45:26;;;;;;;5.40;3.00;;;;;;;0.09;62.27;98952.95;107466;1254;61539;-37
2023/02/04 00:47:56;;;;;;;5.00;2.90;;;;;;;0.10;62.40;98952.23;107486;1254;75253;-37
2023/02/04 00:50:24;;;;;;;5.00;2.80;;;;;;;0.13;62.54;98949.81;107504;1256;68153;-37
2023/02/04 00:52:53;;;;;;;4.80;3.50;;;;;;;0.14;62.22;98945.60;107499;1254;73884;-37
2023/02/04 00:55:21;;;;;;;4.40;2.80;;;;;;;0.11;62.33;98947.30;107469;1254;60812;-37
2023/02/04 00:57:50;;;;;;;6.10;3.10;;;;;;;0.12;62.01;98948.77;107389;1254;61347;-37
2023/02/04 01:00:19;;;;;;;4.00;2.70;;;;;;;0.13;61.96;98949.23;107429;1255;73879;-37
2023/02/04 01:02:47;;;;;;;4.30;2.40;;;;;;;0.16;62.02;98950.45;107393;1254;69365;-37
2023/02/04 01:05:16;;;;;;;4.50;2.70;;;;;;;0.18;61.94;98945.89;107456;1259;73713;-36
2023/02/04 01:07:47;;;;;;;5.10;3.30;;;;;;;0.18;62.27;98943.63;107461;1254;60703;-37
2023/02/04 01:10:16;;;;;;;4.20;2.20;;;;;;;0.19;62.33;98943.61;107417;1256;61532;-37
2023/02/04 01:12:45;;;;;;;5.10;3.00;;;;;;;0.20;62.49;98944.41;107437;1254;73590;-37
2023/02/04 01:15:14;;;;;;;3.80;2.20;;;;;;;0.23;62.66;98944.95;107528;1254;69896;-37
2023/02/04 01:17:42;;;;;;;4.80;2.60;;;;;;;0.29;62.35;98944.66;107503;1254;73870;-37
2023/02/04 01:20:11;;;;;;;4.00;2.50;;;;;;;0.32;62.00;98944.96;107497;1254;60421;-37
2023/02/04 01:22:40;;;;;;;4.60;3.00;;;;;;;0.37;61.98;98939.58;107481;1254;61619;-37
2023/02/04 01:25:08;;;;;;;5.10;2.90;;;;;;;0.42;61.89;98937.64;107489;1254;75075;-37
2023/02/04 01:27:42;;;;;;;4.60;2.90;;;;;;;0.50;62.10;98935.00;107485;1259;69905;-37
2023/02/04 01:30:12;;;;;;;5.10;3.10;;;;;;;0.58;61.89;98937.15;107496;1254;73892;-37
2023/02/04 01:32:42;;;;;;;7.30;3.10;;;;;;;0.61;61.63;98940.81;107470;1254;60779;-37
2023/02/04 01:35:11;;;;;;;3.80;2.50;;;;;;;0.60;61.92;98942.38;107450;1255;61532;-37
2023/02/04 01:37:40;;;;;;;3.90;2.60;;;;;;;0.60;61.80;98940.73;107504;1255;75020;-37
2023/02/04 01:40:09;;;;;;;4.50;2.70;;;;;;;0.54;61.51;98942.90;107518;1258;69920;-37
2023/02/04 01:42:39;;;;;;;5.40;3.00;;;;;;;0.49;61.71;98935.46;107477;1254;73839;-37
2023/02/04 01:45:09;;;;;;;4.30;3.00;;;;;;;0.44;61.77;98938.13;106750;1258;1015691;-38
2023/02/04 01:47:37;;;;;;;7.00;3.10;;;;;;;0.37;61.58;98933.50;107477;1256;60342;-38
2023/02/04 01:50:07;;;;;;;3.00;2.30;;;;;;;0.27;61.41;98929.71;107479;1254;75004;-37
2023/02/04 01:52:37;;;;;;;5.40;2.80;;;;;;;0.21;61.33;98935.02;107135;1260;70062;-37
2023/02/04 01:55:17;;;;;;;4.10;2.20;;;;;;;0.18;61.79;98934.27;107490;1260;73998;-38
2023/02/04 01:57:46;;;;;;;4.70;2.90;;;;;;;0.16;61.95;98935.73;107491;1255;60429;-38
2023/02/04 02:00:17;;;;;;;4.90;3.20;;;;;;;0.11;62.15;98926.14;107524;1254;61563;-38
2023/02/04 02:02:51;;;;;;;5.30;2.70;;;;;;;0.15;62.48;98926.02;107547;1259;72834;-38
2023/02/04 02:05:22;;;;;;;4.10;2.70;;;;;;;0.12;62.58;98929.44;107466;1259;70069;-37
2023/02/04 02:07:53;;;;;;;4.60;2.70;;;;;;;0.11;62.50;98929.47;107551;1254;73077;-38
2023/02/04 02:10:21;;;;;;;4.60;2.30;;;;;;;0.13;62.76;98930.70;107462;1258;60107;-38
2023/02/04 02:12:50;;;;;;;4.50;2.60;;;;;;;0.14;62.75;98933.64;107285;1255;60557;-38
2023/02/04 02:15:18;;;;;;;4.20;2.60;;;;;;;0.15;62.91;98932.14;107281;1255;74902;-38
2023/02/04 02:17:47;;;;;;;7.60;3.00;;;;;;;0.17;62.81;98936.35;107432;1254;67606;-38
2023/02/04 02:20:18;;;;;;;4.30;2.80;;;;;;;0.18;62.81;98936.45;106654;1254;1002918;-38
2023/02/04 02:23:10;;;;;;;5.00;3.00;;;;;;;0.19;62.85;98937.55;107353;1254;60533;-38
2023/02/04 02:25:39;;;;;;;5.00;2.90;;;;;;;0.17;63.02;98936.40;107366;1259;61598;-38
2023/02/04 02:28:13;;;;;;;5.10;3.20;;;;;;;0.13;62.96;98937.25;107366;1260;74914;-38
2023/02/04 02:30:44;;;;;;;5.70;3.40;;;;;;;0.11;62.84;98938.61;107510;1259;67472;-38
2023/02/04 02:33:16;;;;;;;6.10;3.50;;;;;;;0.09;62.86;98939.48;107403;1254;73867;-37
2023/02/04 02:35:47;;;;;;;6.00;3.70;;;;;;;0.08;63.09;98944.02;107409;1254;62419;-37
2023/02/04 02:38:16;;;;;;;8.00;4.30;;;;;;;0.13;63.04;98945.99;107464;1254;61252;-37
2023/02/04 02:40:44;;;;;;;9.90;4.80;;;;;;;0.19;62.89;98944.05;107485;1255;75007;-37
2023/02/04 02:43:18;;;;;;;7.30;4.40;;;;;;;0.22;62.57;98946.48;107481;1254;67505;-37
2023/02/04 02:45:47;;;;;;;5.40;3.50;;;;;;;0.22;62.54;98947.45;107514;1254;72277;-37
2023/02/04 02:48:16;;;;;;;7.20;3.50;;;;;;;0.24;62.53;98949.63;107459;1258;60152;-37
2023/02/04 02:50:44;;;;;;;5.50;3.30;;;;;;;0.29;62.75;98950.63;107516;1254;61487;-38
2023/02/04 02:53:14;;;;;;;4.40;2.80;;;;;;;0.35;62.70;98954.88;107502;1258;74231;-38
2023/02/04 02:55:44;;;;;;;4.70;3.20;;;;;;;0.39;62.72;98957.91;107469;1254;67999;-38
2023/02/04 02:58:22;;;;;;;4.30;2.70;;;;;;;0.42;62.77;98958.06;107498;1259;71794;-38
2023/02/04 03:00:50;;;;;;;4.00;2.90;;;;;;;0.43;62.46;98956.60;107501;1259;60784;-38
2023/02/04 03:03:22;;;;;;;5.50;3.00;;;;;;;0.39;62.63;98956.95;107721;1254;61765;-38
2023/02/04 03:05:54;;;;;;;4.00;2.90;;;;;;;0.39;62.78;98956.59;107700;1254;75094;-38
2023/02/04 03:08:23;;;;;;;5.00;3.30;;;;;;;0.40;62.85;98953.84;107687;1254;67195;-38
2023/02/04 03:10:51;;;;;;;5.10;2.90;;;;;;;0.39;62.88;98948.31;106859;1254;1003643;-38
2023/02/04 03:13:20;;;;;;;6.30;3.10;;;;;;;0.43;62.90;98951.55;107646;1254;60602;-38
2023/02/04 03:15:49;;;;;;;7.20;3.30;;;;;;;0.40;62.64;98951.21;107352;1260;60332;-38
2023/02/04 03:18:18;;;;;;;6.00;3.60;;;;;;;0.38;62.58;98949.95;107513;1254;75179;-38
2023/02/04 03:20:47;;;;;;;3.70;2.20;;;;;;;0.35;62.65;98950.38;107537;1254;68618;-38
2023/02/04 03:23:16;;;;;;;6.00;3.90;;;;;;;0.34;62.54;98951.63;107472;1260;71095;-38
2023/02/04 03:25:44;;;;;;;6.60;3.80;;;;;;;0.32;62.79;98954.41;107536;1259;60901;-38
2023/02/04 03:28:13;;;;;;;7.30;4.20;;;;;;;0.32;62.87;98953.65;107506;1255;60407;-38
2023/02/04 03:30:41;;;;;;;6.70;3.70;;;;;;;0.32;62.70;98953.50;107560;1255;73880;-38
2023/02/04 03:33:11;;;;;;;5.90;3.70;;;;;;;0.31;62.77;98949.73;107498;1254;70065;-38
2023/02/04 03:35:39;;;;;;;7.70;4.10;;;;;;;0.31;62.97;98949.84;107467;1254;73783;-38
2023/02/04 03:38:08;;;;;;;6.70;4.30;;;;;;;0.30;62.98;98954.23;107455;1254;60732;-38
2023/02/04 03:40:36;;;;;;;5.30;4.00;;;;;;;0.30;63.22;98958.29;107417;1255;61282;-38
2023/02/04 03:43:05;;;;;;;7.50;4.10;;;;;;;0.32;63.29;98961.27;106318;1260;1004425;-38
2023/02/04 03:45:34;;;;;;;9.30;4.20;;;;;;;0.33;63.29;98958.58;107483;1254;69928;-38
2023/02/04 03:48:12;;;;;;;6.80;3.70;;;;;;;0.39;63.32;98958.35;107386;1254;73829;-38
2023/02/04 03:50:41;;;;;;;4.50;3.20;;;;;;;0.47;63.18;98956.19;107498;1254;60306;-38
2023/02/04 03:53:10;;;;;;;5.60;3.70;;;;;;;0.54;63.12;98954.92;107355;1254;61542;-38
2023/02/04 03:55:38;;;;;;;5.00;3.30;;;;;;;0.58;63.04;98956.79;107326;1254;75070;-38
2023/02/04 03:58:07;;;;;;;5.30;3.40;;;;;;;0.61;63.21;98956.81;107425;1258;68955;-38
2023/02/04 04:00:35;;;;;;;6.30;3.70;;;;;;;0.64;63.15;98960.39;107493;1254;73821;-37
2023/02/04 04:03:04;;;;;;;5.80;3.70;;;;;;;0.67;62.99;98961.85;107484;1259;60427;-38
2023/02/04 04:05:33;;;;;;;;;;;;;;;0.68;62.99;98964.65;107517;1258;61141;-38
2023/02/04 04:08:02;;;;;;;5.90;3.40;;;;;;;0.63;63.16;98964.23;107509;1254;74730;-38
2023/02/04 04:10:31;;;;;;;6.50;3.80;;;;;;;0.60;63.26;98969.55;107515;1259;69659;-38
2023/02/04 04:13:00;;;;;;;;;;;;;;;0.61;63.07;98974.02;107533;1254;73241;-38
2023/02/04 04:15:30;;;;;;;4.90;3.20;;;;;;;0.54;63.27;98976.62;107493;1255;60552;-38
2023/02/04 04:17:59;;;;;;;5.50;3.60;;;;;;;0.48;63.39;98975.80;107398;1260;169074;-38
2023/02/04 04:21:51;;;;;;;6.40;3.80;;;;;;;0.44;63.54;98982.02;104245;1291;600117;-37
2023/02/04 04:24:20;;;;;;;8.90;4.00;;;;;;;0.38;63.66;98983.39;106628;1265;61060;-36
2023/02/04 04:26:49;;;;;;;5.40;3.60;;;;;;;0.35;63.64;98987.70;106725;1267;61080;-37
2023/02/04 04:29:17;;;;;;;5.30;3.70;;;;;;;0.31;63.86;98991.22;106740;1267;73446;-37
2023/02/04 04:31:46;;;;;;;6.00;3.50;;;;;;;0.26;64.11;98993.09;106720;1269;69813;-36
2023/02/04 04:34:14;;;;;;;6.90;3.80;;;;;;;0.25;64.49;98996.04;106650;1267;73882;-37
2023/02/04 04:36:43;;;;;;;6.60;3.60;;;;;;;0.26;64.31;98999.96;106580;1265;61077;-36
2023/02/04 04:39:12;;;;;;;7.10;3.80;;;;;;;0.31;64.51;99008.59;106790;1265;60372;-37
2023/02/04 04:41:40;;;;;;;6.30;3.90;;;;;;;0.35;64.36;99009.48;106791;1266;73165;-37
2023/02/04 04:44:08;;;;;;;9.60;3.40;;;;;;;0.35;64.57;99013.10;107273;1259;68846;-37
2023/02/04 04:46:39;;;;;;;4.60;2.80;;;;;;;0.39;64.72;99007.20;107272;1259;73692;-37
2023/02/04 04:49:08;;;;;;;5.00;2.90;;;;;;;0.42;64.64;99005.69;107279;1259;60799;-37
2023/02/04 04:51:37;;;;;;;5.00;3.10;;;;;;;0.43;64.60;99008.11;107245;1259;61236;-36
2023/02/04 04:54:06;;;;;;;5.20;3.00;;;;;;;0.46;64.70;99011.27;107244;1258;74318;-37
2023/02/04 04:56:35;;;;;;;6.00;3.30;;;;;;;0.45;64.41;99014.30;107282;1258;68937;-37
2023/02/04 04:59:03;;;;;;;5.40;3.40;;;;;;;0.43;64.39;99024.55;107252;1257;73905;-37
2023/02/04 05:01:33;;;;;;;6.20;3.30;;;;;;;0.37;64.56;99024.36;107255;1259;60547;-37
2023/02/04 05:04:02;;;;;;;4.70;2.90;;;;;;;0.33;64.71;99025.47;107263;1258;61495;-37
2023/02/04 05:06:32;;;;;;;5.40;3.20;;;;;;;0.28;64.76;99025.41;107201;1259;74022;-37
2023/02/04 05:09:00;;;;;;;5.80;3.60;;;;;;;0.25;65.01;99027.98;107183;1261;70008;-37
2023/02/04 05:11:30;;;;;;;6.00;3.90;;;;;;;0.21;64.98;99028.23;107188;1259;73734;-36
2023/02/04 05:13:58;;;;;;;6.50;3.50;;;;;;;0.16;65.04;99035.90;107257;1257;62067;-37
2023/02/04 05:16:27;;;;;;;5.20;4.00;;;;;;;0.17;64.95;99034.19;107217;1259;61830;-37
2023/02/04 05:18:55;;;;;;;5.50;4.20;;;;;;;0.18;65.09;99035.08;107248;1259;74229;-37
2023/02/04 05:21:24;;;;;;;5.20;3.60;;;;;;;0.18;65.33;99043.02;107201;1259;68989;-38
2023/02/04 05:23:52;;;;;;;5.70;3.60;;;;;;;0.17;65.25;99044.10;107521;1253;73059;-37
2023/02/04 05:26:20;;;;;;;6.30;3.30;;;;;;;0.18;65.37;99044.29;107501;1258;59801;-38
2023/02/04 05:29:01;;;;;;;4.90;2.80;;;;;;;0.10;65.26;99034.80;107506;1253;61657;-38
2023/02/04 05:31:30;;;;;;;4.90;3.50;;;;;;;0.11;65.25;99049.80;107553;1253;73914;-37
2023/02/04 05:33:59;;;;;;;5.20;3.20;;;;;;;0.05;65.20;99054.95;107547;1253;70012;-37
2023/02/04 05:36:27;;;;;;;5.00;3.80;;;;;;;-0.04;65.35;99062.63;107534;1253;73870;-37
2023/02/04 05:38:56;;;;;;;7.40;4.00;;;;;;;-0.10;65.61;99065.66;107506;1253;60532;-37
2023/02/04 05:41:24;;;;;;;5.70;3.70;;;;;;;-0.15;65.93;99071.77;107593;1253;62018;-37
2023/02/04 05:43:52;;;;;;;5.80;3.60;;;;;;;-0.14;65.85;99074.08;107541;1258;74673;-37
2023/02/04 05:46:21;;;;;;;5.80;3.10;;;;;;;-0.06;65.78;99078.02;107520;1253;69900;-37
2023/02/04 05:48:49;;;;;;;6.50;3.30;;;;;;;-0.01;65.65;99082.78;107576;1253;73849;-37
2023/02/04 05:51:18;;;;;;;6.40;3.60;;;;;;;0.03;65.73;99085.36;107519;1257;60789;-37
2023/02/04 05:53:46;;;;;;;3.90;2.70;;;;;;;0.05;65.56;99087.46;107520;1253;61623;-37
2023/02/04 05:56:15;;;;;;;5.00;3.30;;;;;;;0.03;65.18;99090.55;107592;1253;74260;-37
2023/02/04 05:58:43;;;;;;;4.90;3.00;;;;;;;-0.02;65.33;99091.01;106854;1253;1002924;-37
2023/02/04 06:01:11;;;;;;;6.60;2.90;;;;;;;-0.09;65.41;99093.84;107589;1253;73812;-37
2023/02/04 06:03:40;;;;;;;5.60;3.00;;;;;;;-0.14;65.59;99096.52;107597;1253;60745;-37
2023/02/04 06:06:09;;;;;;;5.30;3.40;;;;;;;-0.17;65.62;99104.24;107633;1253;60016;-37
2023/02/04 06:08:38;;;;;;;4.50;2.70;;;;;;;-0.19;65.46;99103.59;107576;1253;72375;-37
2023/02/04 06:11:06;;;;;;;4.80;2.90;;;;;;;-0.22;65.57;99106.32;107574;1253;69937;-37
2023/02/04 06:13:35;;;;;;;3.70;2.70;;;;;;;-0.29;65.52;99109.05;107528;1253;73897;-37
2023/02/04 06:16:03;;;;;;;4.70;2.70;;;;;;;-0.31;65.56;99110.85;107544;1253;62409;-37
2023/02/04 06:18:32;;;;;;;3.10;2.00;;;;;;;-0.26;65.57;99116.61;107643;1253;61322;-37
2023/02/04 06:21:03;;;;;;;6.00;2.90;;;;;;;-0.23;65.64;99115.23;107521;1253;74032;-37
2023/02/04 06:23:33;;;;;;;5.20;2.60;;;;;;;-0.22;65.77;99120.55;107460;1253;70384;-37
2023/02/04 06:26:01;;;;;;;5.10;2.80;;;;;;;-0.22;65.43;99120.11;107571;1253;72841;-37
2023/02/04 06:28:30;;;;;;;5.60;3.10;;;;;;;-0.21;65.31;99120.77;107505;1253;60597;-38
2023/02/04 06:31:00;;;;;;;4.60;3.10;;;;;;;-0.22;65.28;99122.56;107521;1253;62406;-38
2023/02/04 06:33:30;;;;;;;4.90;2.80;;;;;;;-0.24;65.58;99122.88;107513;1253;72183;-38
2023/02/04 06:35:59;;;;;;;4.10;2.70;;;;;;;-0.25;65.56;99122.61;107484;1253;69450;-38
2023/02/04 06:38:28;;;;;;;5.40;3.40;;;;;;;-0.25;65.65;99125.18;107493;1253;73799;-38
2023/02/04 06:40:58;;;;;;;;;;;;;;;-0.26;65.82;99129.88;107527;1253;59756;-38
2023/02/04 06:43:26;;;;;;;6.00;3.40;;;;;;;-0.29;65.67;99139.67;107486;1253;61334;-38
2023/02/04 06:45:55;;;;;;;5.10;2.90;;;;;;;-0.29;66.12;99145.39;107658;1253;73697;-38
2023/02/04 06:48:23;;;;;;;4.90;2.50;;;;;;;-0.23;66.00;99143.73;107544;1253;68965;-37
2023/02/04 06:50:52;;;;;;;3.70;2.80;;;;;;;-0.12;65.80;99147.47;107568;1253;74375;-38
2023/02/04 06:53:21;;;;;;;4.30;2.30;;;;;;;-0.05;65.67;99151.86;107608;1253;60787;-38
2023/02/04 06:55:51;;;;;;;4.20;2.80;;;;;;;-0.04;65.58;99154.99;107447;1253;61156;-36
2023/02/04 06:58:20;;;;;;;5.20;3.00;;;;;;;-0.06;65.45;99156.48;107552;1253;74129;-36
2023/02/04 07:00:48;;;;;;;6.10;3.00;;;;;;;-0.08;65.44;99155.86;107585;1253;69504;-36
2023/02/04 07:03:17;;;;;;;4.60;2.70;;;;;;;-0.09;65.56;99161.64;107340;1253;74004;-36
2023/02/04 07:05:46;;;;;;;4.70;2.80;;;;;;;-0.12;65.42;99162.71;107481;1258;59621;-37
2023/02/04 08:09:39;;;;;;;5.00;3.30;;;;;;;0.59;66.09;99197.79;105067;1283;614088;-37
2023/02/04 08:12:06;;;;;;;5.90;3.80;;;;;;;0.90;64.31;99197.34;106601;1264;178426;-36
2023/02/04 08:14:33;;;;;;;6.00;3.90;;;;;;;0.71;64.36;99201.33;106772;1264;61412;-36
2023/02/04 08:17:00;;;;;;;12.00;6.50;;;;;;;0.59;64.66;99201.09;106766;1263;73456;-37
2023/02/04 08:19:28;;;;;;;6.30;4.80;;;;;;;0.52;64.79;99200.50;106885;1264;70016;-37
2023/02/04 08:21:55;;;;;;;5.60;2.60;;;;;;;0.46;64.83;99201.09;107668;1254;73852;-37
2023/02/04 08:24:22;;;;;;;3.30;2.10;;;;;;;0.42;64.90;99200.95;107576;1254;61299;-37
2023/02/04 08:26:49;;;;;;;4.30;2.60;;;;;;;0.44;64.87;99204.48;107523;1253;59553;-37
2023/02/04 08:29:18;;;;;;;5.60;3.00;;;;;;;0.40;65.24;99207.84;107648;1252;73164;-38
2023/02/04 08:31:46;;;;;;;4.90;2.80;;;;;;;0.40;65.45;99210.63;107601;1254;69828;-38
2023/02/04 08:34:13;;;;;;;5.80;2.90;;;;;;;0.42;65.48;99213.90;107681;1254;71686;-38
2023/02/04 08:36:44;;;;;;;5.60;3.00;;;;;;;0.46;65.32;99217.69;107547;1254;60749;-38
2023/02/04 08:39:11;;;;;;;5.10;3.20;;;;;;;0.46;65.14;99228.77;107643;1256;59482;-38
2023/02/04 08:41:38;;;;;;;7.50;4.40;;;;;;;0.44;64.91;99224.23;107587;1254;74167;-38
2023/02/04 08:44:05;;;;;;;9.80;4.90;;;;;;;0.40;65.05;99233.36;107586;1254;70199;-38
2023/02/04 08:46:32;;;;;;;5.10;3.10;;;;;;;0.37;65.22;99231.76;107800;1254;72895;-38
2023/02/04 08:48:59;;;;;;;7.40;3.80;;;;;;;0.35;64.94;99235.21;107564;1256;60764;-38
2023/02/04 08:51:28;;;;;;;7.40;4.10;;;;;;;0.29;64.93;99241.19;107660;1254;60521;-38
2023/02/04 08:53:56;;;;;;;6.00;3.40;;;;;;;0.24;65.20;99238.84;107668;1256;74130;-38
2023/02/04 08:56:24;;;;;;;6.60;3.60;;;;;;;0.26;65.29;99242.41;107648;1254;69944;-38
2023/02/04 08:58:54;;;;;;;6.20;3.20;;;;;;;0.28;65.48;99246.48;107586;1253;73534;-37
2023/02/04 09:01:21;;;;;;;5.80;3.40;;;;;;;0.26;65.31;99246.04;107578;1254;60479;-37
2023/02/04 09:03:48;;;;;;;3.90;2.60;;;;;;;0.22;65.13;99246.60;107650;1253;60762;-37
2023/02/04 09:06:15;;;;;;;5.40;3.00;;;;;;;0.15;65.42;99253.96;107558;1254;74046;-37
2023/02/04 09:08:51;;;;;;;3.80;2.50;;;;;;;0.10;65.66;99252.77;107522;1255;69891;-38
2023/02/04 09:11:18;;;;;;;3.20;2.20;;;;;;;0.12;65.76;99256.05;107601;1254;73839;-38
2023/02/04 09:13:46;;;;;;;4.20;2.50;;;;;;;0.10;65.40;99251.85;107567;1254;59802;-38
2023/02/04 09:16:14;;;;;;;2.90;2.20;;;;;;;0.05;64.93;99251.73;107680;1254;61500;-38
2023/02/04 09:18:41;;;;;;;4.70;2.60;;;;;;;-0.06;64.73;99248.79;107634;1253;74330;-37
2023/02/04 09:21:08;;;;;;;3.10;2.20;;;;;;;-0.09;65.02;99249.90;107559;1256;69844;-37
2023/02/04 09:23:35;;;;;;;4.10;2.20;;;;;;;-0.04;64.84;99252.11;107508;1253;73855;-37
2023/02/04 09:26:03;;;;;;;3.70;2.20;;;;;;;-0.02;64.89;99250.40;107628;1256;59732;-37
2023/02/04 09:28:31;;;;;;;2.40;1.70;;;;;;;0.01;64.07;99250.64;107729;1253;60309;-37
2023/02/04 09:30:59;;;;;;;2.30;1.60;;;;;;;0.02;63.65;99251.84;107675;1254;71484;-38
2023/02/04 09:33:26;;;;;;;2.60;1.90;;;;;;;0.01;63.55;99255.17;107644;1254;69726;-37
2023/02/04 09:35:54;;;;;;;3.90;2.00;;;;;;;0.00;63.80;99250.96;107681;1253;73853;-37
2023/02/04 09:38:21;;;;;;;3.80;2.20;;;;;;;0.03;63.62;99251.66;107598;1253;59761;-37
2023/02/04 09:40:53;;;;;;;4.40;3.00;;;;;;;0.02;63.73;99253.50;107572;1254;61446;-37
2023/02/04 09:43:25;;;;;;;4.90;2.80;;;;;;;0.04;64.17;99260.70;107736;1254;73887;-37
2023/02/04 09:45:55;;;;;;;6.60;2.60;;;;;;;0.04;64.05;99259.64;107721;1253;67821;-37
2023/02/04 09:48:23;;;;;;;6.40;2.80;;;;;;;-0.02;64.26;99255.80;107574;1254;73741;-37
2023/02/04 09:50:50;;;;;;;2.70;2.10;;;;;;;-0.00;64.67;99256.63;107618;1253;61048;-37
2023/02/04 09:53:21;;;;;;;3.00;1.90;;;;;;;0.14;64.96;99260.96;107533;1254;60446;-37
2023/02/04 09:55:49;;;;;;;2.70;2.00;;;;;;;0.22;64.37;99260.18;107645;1254;74191;-37
2023/02/04 09:58:18;;;;;;;2.50;1.60;;;;;;;0.25;64.28;99261.09;107651;1254;68569;-37
2023/02/04 10:00:46;;;;;;;3.90;2.10;;;;;;;0.28;64.34;99262.73;107670;1253;72741;-37
2023/02/04 10:03:15;;;;;;;5.00;2.90;;;;;;;0.30;64.36;99265.75;107709;1254;60898;-37
2023/02/04 10:05:44;;;;;;;4.80;2.90;;;;;;;0.36;64.86;99270.05;107701;1256;61465;-37
2023/02/04 10:08:13;;;;;;;6.30;3.80;;;;;;;0.43;64.86;99273.62;107749;1253;74284;-37
2023/02/04 10:10:40;;;;;;;10.10;4.00;;;;;;;0.46;64.22;99276.23;107655;1254;69630;-37
2023/02/04 10:13:18;;;;;;;10.30;4.70;;;;;;;0.44;63.82;99279.04;107578;1257;74155;-37
2023/02/04 10:15:46;;;;;;;13.60;6.50;;;;;;;0.42;63.90;99282.11;107489;1253;60930;-37
2023/02/04 10:18:27;;;;;;;8.30;4.80;;;;;;;0.43;63.78;99282.53;107585;1252;61690;-37
2023/02/04 10:21:14;;;;;;;5.30;3.50;;;;;;;0.44;63.61;99285.71;107577;1256;74083;-37
2023/02/04 10:23:42;;;;;;;5.40;3.40;;;;;;;0.45;63.16;99289.32;107673;1254;69737;-37
2023/02/04 10:26:10;;;;;;;5.00;3.00;;;;;;;0.43;63.58;99293.67;107700;1254;73984;-37
2023/02/04 10:28:39;;;;;;;3.90;2.20;;;;;;;0.49;63.75;99302.33;107702;1254;59712;-37
2023/02/04 10:31:11;;;;;;;3.30;2.20;;;;;;;0.50;63.85;99304.91;107709;1253;61969;-37
2023/02/04 10:33:41;;;;;;;3.50;2.10;;;;;;;0.49;63.92;99314.33;107627;1254;72890;-37
2023/02/04 10:36:09;;;;;;;5.10;2.50;;;;;;;0.48;64.44;99313.33;107714;1254;69858;-37
2023/02/04 10:38:36;;;;;;;4.80;3.00;;;;;;;0.48;64.55;99315.03;107563;1254;72652;-37
2023/02/04 10:41:04;;;;;;;5.30;3.20;;;;;;;0.48;64.74;99313.00;107610;1254;60780;-37
2023/02/04 10:43:31;;;;;;;4.50;2.30;;;;;;;0.49;64.99;99314.33;107561;1252;60184;-38
2023/02/04 10:46:01;;;;;;;2.80;2.30;;;;;;;0.50;64.63;99317.83;107540;1253;74242;-37
2023/02/04 10:48:29;;;;;;;6.00;2.60;;;;;;;0.46;64.35;99319.87;107615;1254;69699;-37
2023/02/04 10:50:57;;;;;;;3.50;2.50;;;;;;;0.43;64.77;99325.20;107607;1254;74058;-37
2023/02/04 10:56:18;;;;;;;5.30;3.20;;;;;;;0.38;65.08;99327.27;107782;1253;61520;-37
2023/02/04 10:58:46;;;;;;;4.00;2.80;;;;;;;0.35;65.91;99329.07;107612;1254;74223;-37
2023/02/04 11:01:14;;;;;;;6.00;3.60;;;;;;;0.41;66.23;99332.86;107586;1254;69829;-38
2023/02/04 11:03:42;;;;;;;5.70;4.40;;;;;;;0.48;66.19;99333.44;107652;1254;71883;-37
2023/02/04 11:06:11;;;;;;;4.10;3.00;;;;;;;0.50;66.01;99334.78;107736;1254;60990;-37
2023/02/04 11:08:38;;;;;;;3.90;2.50;;;;;;;0.47;65.68;99336.02;107733;1254;61416;-36
2023/02/04 11:11:17;;;;;;;4.50;2.30;;;;;;;0.42;65.10;99341.16;107607;1252;74272;-37
2023/02/04 11:13:55;;;;;;;5.60;2.10;;;;;;;0.32;64.84;99343.94;107707;1254;68302;-36
2023/02/04 11:16:24;;;;;;;3.60;2.80;;;;;;;0.22;65.13;99346.89;107720;1254;73877;-36
2023/02/04 11:18:55;;;;;;;7.50;4.20;;;;;;;0.21;65.30;99347.55;107716;1253;60141;-37
2023/02/04 11:21:31;;;;;;;5.70;3.30;;;;;;;0.27;65.36;99353.41;107800;1253;61149;-37
2023/02/04 11:24:22;;;;;;;3.30;2.00;;;;;;;0.39;65.17;99353.21;107678;1254;74024;-36
2023/02/04 11:26:51;;;;;;;4.40;2.80;;;;;;;0.42;64.53;99357.26;107726;1254;67633;-36
2023/02/04 11:29:36;;;;;;;5.50;3.10;;;;;;;0.36;64.19;99360.41;107739;1253;71638;-36
2023/02/04 11:32:23;;;;;;;4.40;2.20;;;;;;;0.36;64.21;99358.70;107712;1254;59797;-36
2023/02/04 11:34:51;;;;;;;2.80;2.00;;;;;;;0.34;63.84;99355.58;107678;1253;61208;-36
2023/02/04 11:37:35;;;;;;;4.70;1.90;;;;;;;0.29;63.09;99360.52;107744;1252;73005;-36
2023/02/04 11:40:21;;;;;;;3.20;2.00;;;;;;;0.24;62.75;99363.69;107708;1254;68137;-36
2023/02/04 11:42:49;;;;;;;2.70;2.00;;;;;;;0.18;62.78;99363.75;107641;1254;73891;-37
2023/02/04 11:45:20;;;;;;;4.00;2.10;;;;;;;0.14;62.75;99362.86;107687;1252;59965;-36
2023/02/04 11:47:48;;;;;;;4.30;2.40;;;;;;;0.10;62.68;99361.27;107704;1253;61110;-36
2023/02/04 11:50:24;;;;;;;3.50;2.20;;;;;;;0.08;62.24;99368.86;107530;1253;72831;-37
2023/02/04 11:53:00;;;;;;;4.20;2.50;;;;;;;0.09;61.52;99373.02;107727;1254;69908;-37
2023/02/04 11:55:29;;;;;;;3.50;2.20;;;;;;;0.05;61.24;99368.63;107645;1254;73911;-36
2023/02/04 11:57:57;;;;;;;3.50;2.30;;;;;;;-0.04;60.06;99369.09;107536;1254;60765;-36
2023/02/04 12:00:31;;;;;;;3.40;2.20;;;;;;;-0.14;60.34;99379.73;106904;1253;1003770;-37
2023/02/04 12:03:09;;;;;;;3.40;2.20;;;;;;;-0.20;59.52;99379.61;107620;1255;73871;-36
2023/02/04 12:05:41;;;;;;;4.40;2.10;;;;;;;-0.26;59.54;99374.05;107665;1254;70530;-36
2023/02/04 12:08:32;;;;;;;3.00;2.00;;;;;;;-0.29;59.49;99375.16;107563;1257;71667;-36
2023/02/04 12:11:10;;;;;;;3.10;2.00;;;;;;;-0.28;58.08;99378.69;107641;1254;59336;-36
2023/02/04 12:13:49;;;;;;;2.30;1.80;;;;;;;-0.29;57.73;99381.00;107687;1252;61254;-36
2023/02/04 12:16:17;;;;;;;2.10;1.80;;;;;;;-0.29;57.63;99379.40;107724;1254;74194;-36
2023/02/04 12:18:44;;;;;;;2.80;1.90;;;;;;;-0.28;57.86;99383.61;107602;1257;68717;-36
2023/02/04 12:21:13;;;;;;;3.70;2.30;;;;;;;-0.21;57.77;99385.54;106897;1254;1003703;-36
2023/02/04 12:23:41;;;;;;;2.30;1.60;;;;;;;-0.14;57.01;99387.84;106838;1256;1003076;-36
2023/02/04 12:26:08;;;;;;;2.20;1.80;;;;;;;-0.09;56.53;99390.59;107673;1254;60562;-36
2023/02/04 12:28:35;;;;;;;4.00;2.30;;;;;;;-0.04;56.33;99391.05;107621;1254;73894;-36
2023/02/04 12:31:03;;;;;;;4.10;1.90;;;;;;;-0.04;55.98;99388.65;107700;1254;69873;-37
2023/02/04 12:33:30;;;;;;;2.10;1.40;;;;;;;0.02;55.66;99397.10;107504;1254;73670;-36
2023/02/04 12:35:57;;;;;;;1.70;1.10;;;;;;;0.03;55.43;99403.01;106867;1254;1002516;-36
2023/02/04 12:38:24;;;;;;;1.50;1.30;;;;;;;0.07;55.58;99398.40;107935;1254;61189;-37
2023/02/04 12:40:51;;;;;;;2.00;1.40;;;;;;;0.09;55.50;99388.56;107642;1257;75012;-36
2023/02/04 12:43:18;;;;;;;5.60;1.60;;;;;;;0.21;55.48;99403.42;107688;1254;69779;-37
2023/02/04 12:45:48;;;;;;;3.50;2.00;;;;;;;0.27;55.55;99405.98;107708;1253;73721;-36
2023/02/04 12:48:15;;;;;;;2.60;1.50;;;;;;;0.33;55.46;99411.39;107507;1254;60871;-36